Rowe, Illinois
Current Conditions -  °F | °C
As of 7:55 PM on Thursday 18 Dec 2014 (Local Time) from KPNT Reporting Station
Scattered Clouds Scattered Clouds  
Wind Chill: 18°   Ceiling: Unl
Heat Index: 25°   Visibility: 10mi
Dew Point: 21°   Wind: 6mph
Humidity: 86%   Direction: 350°N
Pressure: 30.28"   Gusts: NA
Location:  40.8602°N, 88.6284°W
Report Text: KPNT 190155Z AUTO 35005KT 10SM SCT019 M04/M06 A3028 RMK AO2 T10401061
Loading
Personal Weather Stations






























Interactive Weather Map New forecast layout! Learn more

10-Day Weather Forecast

Advertisements
Track Severe Weather on mobile